Chicago, Illinois
Traffic Map
Current Weather Conditions
Chicago, Illinois
Overcast
Overcast
36°
Feels Like: 29°
Wind Chill: 29° Ceiling: 10000
Heat Index: 36° Visibility: 10mi
Dew Point: 29° Wind: 9mph
Humidity: 76% Direction: 200° (SSW)
Pressure: 29.94in Gusts: 20mph
Raw Report DataKMDW 290253Z 20008G17KT 10SM BKN100 OVC120 02/M02 A2994 RMK AO2 SLP150 T00221017 56018 $
Traffic Incident Summary
Active as of:
Severity:
Category:
InformationThere was an issue retrieving the traffic information for this location. Please try a different location or try again shortly.
Advertisements
Track Severe Weather on mobile